createdAt,value
2019-05-02T00:01:02.483Z,40.65
2019-05-02T00:03:41.034Z,40.53
2019-05-02T00:06:10.326Z,40.65
2019-05-02T00:08:42.858Z,40.72
2019-05-02T00:11:14.917Z,40.86
2019-05-02T00:13:46.884Z,40.83
2019-05-02T00:16:18.889Z,40.75
2019-05-02T00:18:51.874Z,40.77
2019-05-02T00:21:24.039Z,40.86
2019-05-02T00:23:59.315Z,40.76
2019-05-02T00:26:30.812Z,40.67
2019-05-02T00:29:02.909Z,40.67
2019-05-02T00:31:37.283Z,40.85
2019-05-02T00:34:10.046Z,40.79
2019-05-02T00:36:42.905Z,40.74
2019-05-02T00:39:15.226Z,40.90
2019-05-02T00:41:47.889Z,40.83
2019-05-02T00:44:19.876Z,40.89
2019-05-02T00:46:52.805Z,40.90
2019-05-02T00:49:24.880Z,40.83
2019-05-02T00:52:01.272Z,40.83
2019-05-02T00:54:30.881Z,40.94
2019-05-02T00:57:03.090Z,40.94
2019-05-02T00:59:37.715Z,40.91
2019-05-02T01:02:19.855Z,40.84
2019-05-02T01:04:51.853Z,40.84
2019-05-02T01:07:25.601Z,40.95
2019-05-02T01:09:58.559Z,40.95
2019-05-02T01:12:30.839Z,40.87
2019-05-02T01:15:03.435Z,40.87
2019-05-02T01:17:36.828Z,40.92
2019-05-02T01:20:09.861Z,40.92
2019-05-02T01:22:42.326Z,41.07
2019-05-02T01:25:16.980Z,40.87
2019-05-02T01:28:12.641Z,40.92
2019-05-02T01:31:07.516Z,41.05
2019-05-02T01:33:46.532Z,41.17
2019-05-02T01:36:22.829Z,41.15
2019-05-02T01:38:54.921Z,41.08
2019-05-02T01:41:29.214Z,41.03
2019-05-02T01:44:01.635Z,40.97
2019-05-02T01:46:33.897Z,41.04
2019-05-02T01:49:06.896Z,41.13
2019-05-02T01:51:41.966Z,41.05
2019-05-02T01:54:12.838Z,41.00
2019-05-02T01:56:44.839Z,41.00
2019-05-02T01:59:17.019Z,41.00
2019-05-02T02:01:53.210Z,40.98
2019-05-02T02:04:23.847Z,41.03
2019-05-02T02:06:55.955Z,41.04
2019-05-02T02:09:27.887Z,40.95
2019-05-02T02:11:59.791Z,41.00
2019-05-02T02:14:32.373Z,41.16
2019-05-02T02:17:04.874Z,41.13
2019-05-02T02:19:43.542Z,41.01
2019-05-02T02:22:33.814Z,41.23
2019-05-02T02:25:22.656Z,41.22
2019-05-02T02:27:59.534Z,41.22
2019-05-02T02:30:28.865Z,41.22
2019-05-02T02:33:07.517Z,41.22
2019-05-02T02:35:35.007Z,41.21
2019-05-02T02:38:07.015Z,41.21
2019-05-02T02:40:39.333Z,41.18
2019-05-02T02:43:32.434Z,41.23
2019-05-02T02:46:03.283Z,41.22
2019-05-02T02:48:40.745Z,41.26
2019-05-02T02:51:22.253Z,41.21
2019-05-02T02:53:44.873Z,41.37
2019-05-02T02:56:16.865Z,41.37
2019-05-02T02:58:48.821Z,41.41
2019-05-02T03:01:28.336Z,41.52
2019-05-02T03:03:54.880Z,41.46
2019-05-02T03:06:26.871Z,41.46
2019-05-02T03:08:59.322Z,41.37
2019-05-02T03:11:39.319Z,41.30
2019-05-02T03:14:18.589Z,41.35
2019-05-02T03:16:50.891Z,41.37
2019-05-02T03:19:23.144Z,41.37
2019-05-02T03:22:01.158Z,41.45
2019-05-02T03:24:29.951Z,41.31
2019-05-02T03:27:02.328Z,41.24
2019-05-02T03:29:41.108Z,41.36
2019-05-02T03:32:17.028Z,41.24
2019-05-02T03:34:48.895Z,41.37
2019-05-02T03:37:18.349Z,41.37
2019-05-02T03:39:57.413Z,41.42
2019-05-02T03:42:25.002Z,41.49
2019-05-02T03:45:04.089Z,41.49
2019-05-02T03:47:36.831Z,41.54
2019-05-02T03:50:08.622Z,41.61
2019-05-02T03:52:43.440Z,41.49
2019-05-02T03:55:13.329Z,41.49
2019-05-02T03:57:45.890Z,41.60
2019-05-02T04:00:21.376Z,41.46
2019-05-02T04:02:59.193Z,41.62
2019-05-02T04:05:26.831Z,41.79
2019-05-02T04:07:58.816Z,41.79
2019-05-02T04:11:26.347Z,41.62
2019-05-02T04:13:58.875Z,41.75
2019-05-02T04:16:31.811Z,41.63
2019-05-02T04:19:05.040Z,41.57
2019-05-02T04:21:37.613Z,41.52
2019-05-02T04:24:15.036Z,41.67
2019-05-02T04:26:51.997Z,41.67
2019-05-02T04:29:15.794Z,41.75
2019-05-02T04:31:47.765Z,41.81
2019-05-02T04:34:18.617Z,41.46
2019-05-02T04:37:00.018Z,41.48
2019-05-02T04:39:23.751Z,41.48
2019-05-02T04:41:54.600Z,41.61
2019-05-02T04:44:29.863Z,41.62
2019-05-02T04:47:10.024Z,41.62
2019-05-02T04:49:35.982Z,41.51
2019-05-02T04:52:11.287Z,41.48
2019-05-02T04:54:40.269Z,41.52
2019-05-02T04:57:11.854Z,41.63
2019-05-02T04:59:43.868Z,41.57
2019-05-02T05:02:31.073Z,41.46
2019-05-02T05:04:58.108Z,41.50
2019-05-02T05:07:31.043Z,41.51
2019-05-02T05:10:03.634Z,41.51
2019-05-02T05:12:39.961Z,41.49
2019-05-02T05:15:13.342Z,41.42
2019-05-02T05:17:42.746Z,41.26
2019-05-02T05:20:15.849Z,41.32
2019-05-02T05:22:47.934Z,41.08
2019-05-02T05:25:27.680Z,40.98
2019-05-02T05:28:05.683Z,41.15
2019-05-02T05:30:37.001Z,41.13
2019-05-02T05:33:07.640Z,41.03
2019-05-02T05:35:43.216Z,41.04
2019-05-02T05:38:13.297Z,41.09
2019-05-02T05:40:44.938Z,40.98
2019-05-02T05:43:20.348Z,40.91
2019-05-02T05:45:56.218Z,40.96
2019-05-02T05:48:23.700Z,41.00
2019-05-02T05:50:54.507Z,40.91
2019-05-02T05:53:28.064Z,40.95
2019-05-02T05:56:02.482Z,41.09
2019-05-02T05:58:33.311Z,40.97
2019-05-02T06:01:09.336Z,41.03
2019-05-02T06:03:41.976Z,41.02
2019-05-02T06:06:14.887Z,41.02
2019-05-02T06:08:49.195Z,41.02
2019-05-02T06:11:20.000Z,41.04
2019-05-02T06:13:52.753Z,40.97
2019-05-02T06:16:24.649Z,40.94
2019-05-02T06:18:56.333Z,40.99
2019-05-02T06:21:27.995Z,40.99
2019-05-02T06:23:59.732Z,41.01
2019-05-02T06:26:30.645Z,40.88
2019-05-02T06:29:02.303Z,40.74
2019-05-02T06:31:38.233Z,40.84
2019-05-02T06:34:08.407Z,40.93
2019-05-02T06:36:39.927Z,40.93
2019-05-02T06:39:11.261Z,40.77
2019-05-02T06:41:42.855Z,40.90
2019-05-02T06:44:18.435Z,41.00
2019-05-02T06:46:48.298Z,40.96
2019-05-02T06:49:24.325Z,40.85
2019-05-02T06:51:56.358Z,40.83
2019-05-02T06:54:26.755Z,40.89
2019-05-02T06:56:57.459Z,41.00
2019-05-02T06:59:29.310Z,41.01
2019-05-02T07:02:01.312Z,40.90
2019-05-02T07:04:33.644Z,40.80
2019-05-02T07:07:04.445Z,40.79
2019-05-02T07:09:41.088Z,40.79
2019-05-02T07:12:14.281Z,40.66
2019-05-02T07:14:45.793Z,40.66
2019-05-02T07:17:32.280Z,40.69
2019-05-02T07:20:03.903Z,40.53
2019-05-02T07:22:38.618Z,40.53
2019-05-02T07:25:11.313Z,40.36
2019-05-02T07:27:42.957Z,40.36
2019-05-02T07:30:14.876Z,40.28
2019-05-02T07:32:46.771Z,40.27
2019-05-02T07:35:19.137Z,40.33
2019-05-02T07:37:50.793Z,40.16
2019-05-02T07:40:22.456Z,40.18
2019-05-02T07:42:54.628Z,40.30
2019-05-02T07:45:26.779Z,40.09
2019-05-02T07:48:01.356Z,40.09
2019-05-02T07:50:31.750Z,39.99
2019-05-02T07:53:04.450Z,39.93
2019-05-02T07:55:40.647Z,39.84
2019-05-02T07:58:09.773Z,39.87
2019-05-02T08:00:40.619Z,39.94
2019-05-02T08:03:12.790Z,39.69
2019-05-02T08:05:44.749Z,39.69
2019-05-02T08:08:15.510Z,39.68
2019-05-02T08:10:47.316Z,39.71
2019-05-02T08:13:19.462Z,39.71
2019-05-02T08:15:52.413Z,39.54
2019-05-02T08:18:25.247Z,39.68
2019-05-02T08:20:57.703Z,39.68
2019-05-02T08:23:28.618Z,39.49
2019-05-02T08:26:00.330Z,39.68
2019-05-02T08:28:46.950Z,39.68
2019-05-02T08:31:18.912Z,39.66
2019-05-02T08:33:51.378Z,39.42
2019-05-02T08:36:23.347Z,39.42
2019-05-02T08:38:55.493Z,39.21
2019-05-02T08:41:27.729Z,39.32
2019-05-02T08:43:59.794Z,39.32
2019-05-02T08:46:31.579Z,39.36
2019-05-02T08:49:03.306Z,39.26
2019-05-02T08:51:34.831Z,39.26
2019-05-02T08:54:06.470Z,39.12
2019-05-02T08:56:38.297Z,39.18
2019-05-02T08:59:09.817Z,39.07
2019-05-02T09:01:44.729Z,39.18
2019-05-02T09:04:14.800Z,39.09
2019-05-02T09:06:46.457Z,39.01
2019-05-02T09:09:22.605Z,38.92
2019-05-02T09:12:07.115Z,39.21
2019-05-02T09:14:25.293Z,39.21
2019-05-02T09:17:00.377Z,39.45
2019-05-02T09:19:34.518Z,39.16
2019-05-02T09:22:07.634Z,39.03
2019-05-02T09:24:38.402Z,39.15
2019-05-02T09:27:11.799Z,39.15
2019-05-02T09:29:45.938Z,39.23
2019-05-02T09:32:22.770Z,39.06
2019-05-02T09:34:51.834Z,39.24
2019-05-02T09:37:24.372Z,39.01
2019-05-02T09:39:56.062Z,39.14
2019-05-02T09:42:27.765Z,39.10
2019-05-02T09:44:58.596Z,39.16
2019-05-02T09:47:33.146Z,38.89
2019-05-02T09:50:13.057Z,38.89
2019-05-02T09:52:44.725Z,39.00
2019-05-02T09:55:17.441Z,38.92
2019-05-02T09:57:49.304Z,38.83
2019-05-02T10:00:32.359Z,38.68
2019-05-02T10:03:03.748Z,38.48
2019-05-02T10:05:34.457Z,38.48
2019-05-02T10:08:08.088Z,38.51
2019-05-02T10:10:44.239Z,38.57
2019-05-02T10:13:14.310Z,38.55
2019-05-02T10:15:45.997Z,38.58
2019-05-02T10:18:19.643Z,38.37
2019-05-02T10:20:52.430Z,38.45
2019-05-02T10:23:23.665Z,38.73
2019-05-02T10:25:54.434Z,38.67
2019-05-02T10:28:26.312Z,38.50
2019-05-02T10:30:57.968Z,38.51
2019-05-02T10:33:33.669Z,38.44
2019-05-02T10:36:03.782Z,38.48
2019-05-02T10:38:34.471Z,38.41
2019-05-02T10:41:06.328Z,38.44
2019-05-02T10:43:38.303Z,38.36
2019-05-02T10:46:37.723Z,38.33
2019-05-02T10:49:16.261Z,38.42
2019-05-02T10:51:49.592Z,38.40
2019-05-02T10:54:23.090Z,38.35
2019-05-02T10:56:55.059Z,38.38
2019-05-02T10:59:26.766Z,38.41
2019-05-02T11:02:10.010Z,38.46
2019-05-02T11:04:46.305Z,38.62
2019-05-02T11:07:22.789Z,38.43
2019-05-02T11:09:52.568Z,38.53
2019-05-02T11:12:41.998Z,38.43
2019-05-02T11:15:26.851Z,38.50
2019-05-02T11:17:58.772Z,38.42
2019-05-02T11:20:31.861Z,38.31
2019-05-02T11:23:03.730Z,38.31
2019-05-02T11:25:35.732Z,38.34
2019-05-02T11:28:07.200Z,38.34
2019-05-02T11:30:41.956Z,38.30
2019-05-02T11:33:13.760Z,38.29
2019-05-02T11:35:49.116Z,38.35
2019-05-02T11:38:18.419Z,38.39
2019-05-02T11:40:52.058Z,38.42
2019-05-02T11:43:24.306Z,38.34
2019-05-02T11:46:02.536Z,38.29
2019-05-02T11:48:31.881Z,38.36
2019-05-02T11:51:07.418Z,38.32
2019-05-02T11:53:36.809Z,38.39
2019-05-02T11:56:10.999Z,38.28
2019-05-02T11:58:48.072Z,38.29
2019-05-02T12:01:19.303Z,38.29
2019-05-02T12:03:52.468Z,38.29
2019-05-02T12:06:24.398Z,38.10
2019-05-02T12:08:56.066Z,38.10
2019-05-02T12:11:27.790Z,38.22
2019-05-02T12:13:59.373Z,38.14
2019-05-02T12:16:32.276Z,38.23
2019-05-02T12:19:11.784Z,38.09
2019-05-02T12:21:39.342Z,38.40
2019-05-02T12:24:12.686Z,37.95
2019-05-02T12:26:46.548Z,38.40
2019-05-02T12:29:21.736Z,38.20
2019-05-02T12:31:56.415Z,38.23
2019-05-02T12:34:26.423Z,38.02
2019-05-02T12:36:58.048Z,38.11
2019-05-02T12:39:31.630Z,38.26
2019-05-02T12:42:03.826Z,38.25
2019-05-02T12:44:35.742Z,38.23
2019-05-02T12:47:06.554Z,38.10
2019-05-02T12:49:38.298Z,38.05
2019-05-02T12:52:09.866Z,38.05
2019-05-02T12:54:41.750Z,38.01
2019-05-02T12:57:13.499Z,38.03
2019-05-02T12:59:45.297Z,38.08
2019-05-02T13:02:25.575Z,38.05
2019-05-02T13:04:57.737Z,38.39
2019-05-02T13:07:28.442Z,38.39
2019-05-02T13:10:02.221Z,38.31
2019-05-02T13:12:36.318Z,38.20
2019-05-02T13:15:08.292Z,38.29
2019-05-02T13:17:45.975Z,38.41
2019-05-02T13:20:15.442Z,38.51
2019-05-02T13:23:05.419Z,38.51
2019-05-02T13:25:37.431Z,38.32
2019-05-02T13:28:09.058Z,38.34
2019-05-02T13:30:51.639Z,38.34
2019-05-02T13:33:37.755Z,38.31
2019-05-02T13:36:10.265Z,38.40
2019-05-02T13:38:42.335Z,38.48
2019-05-02T13:41:14.336Z,38.51
2019-05-02T13:43:48.338Z,38.46
2019-05-02T13:46:23.307Z,38.40
2019-05-02T13:48:55.064Z,38.38
2019-05-02T13:51:26.745Z,38.46
2019-05-02T13:54:02.257Z,38.53
2019-05-02T13:56:53.031Z,38.52
2019-05-02T13:59:24.753Z,38.43
2019-05-02T14:01:55.659Z,38.44
2019-05-02T14:04:26.429Z,38.55
2019-05-02T14:06:58.062Z,38.55
2019-05-02T14:09:58.046Z,38.45
2019-05-02T14:12:44.488Z,38.45
2019-05-02T14:15:17.303Z,38.45
2019-05-02T14:17:48.897Z,38.11
2019-05-02T14:20:22.710Z,37.83
2019-05-02T14:22:54.609Z,37.75
2019-05-02T14:25:26.337Z,37.53
2019-05-02T14:27:58.289Z,37.53
2019-05-02T14:30:37.042Z,37.44
2019-05-02T14:33:06.990Z,37.52
2019-05-02T14:35:38.744Z,37.51
2019-05-02T14:38:13.096Z,37.46
2019-05-02T14:41:05.409Z,37.35
2019-05-02T14:43:54.019Z,37.25
2019-05-02T14:46:34.297Z,37.43
2019-05-02T14:49:02.869Z,37.48
2019-05-02T14:51:36.637Z,37.48
2019-05-02T14:54:09.298Z,37.52
2019-05-02T14:57:05.735Z,37.51
2019-05-02T14:59:37.363Z,37.50
2019-05-02T15:02:13.153Z,37.55
2019-05-02T15:04:48.828Z,37.47
2019-05-02T15:07:24.807Z,37.48
2019-05-02T15:09:57.270Z,37.60
2019-05-02T15:12:27.321Z,37.60
2019-05-02T15:15:00.053Z,37.60
2019-05-02T15:17:33.645Z,37.46
2019-05-02T15:20:07.329Z,37.75
2019-05-02T15:22:39.811Z,37.93
2019-05-02T15:25:15.849Z,38.50
2019-05-02T15:27:49.953Z,38.17
2019-05-02T15:30:21.322Z,38.17
2019-05-02T15:33:04.262Z,38.38
2019-05-02T15:36:03.183Z,38.40
2019-05-02T15:38:32.403Z,38.91
2019-05-02T15:41:07.823Z,38.91
2019-05-02T15:43:39.367Z,38.91
2019-05-02T15:46:15.778Z,38.71
2019-05-02T15:48:46.850Z,38.96
2019-05-02T15:51:19.299Z,38.96
2019-05-02T15:54:08.510Z,38.95
2019-05-02T15:56:59.974Z,38.92
2019-05-02T15:59:44.483Z,38.91
2019-05-02T16:02:17.504Z,38.91
2019-05-02T16:04:47.851Z,39.15
2019-05-02T16:07:22.344Z,39.27
2019-05-02T16:09:59.245Z,38.94
2019-05-02T16:12:32.215Z,38.56
2019-05-02T16:15:07.204Z,38.97
2019-05-02T16:17:35.736Z,39.38
2019-05-02T16:20:13.789Z,39.36
2019-05-02T16:23:05.323Z,39.55
2019-05-02T16:25:38.328Z,39.58
2019-05-02T16:28:12.702Z,39.26
2019-05-02T16:30:47.604Z,39.52
2019-05-02T16:33:20.847Z,39.41
2019-05-02T16:35:54.566Z,39.34
2019-05-02T16:38:26.740Z,39.35
2019-05-02T16:41:02.276Z,38.91
2019-05-02T16:43:34.822Z,39.38
2019-05-02T16:46:11.903Z,39.42
2019-05-02T16:48:42.666Z,38.56
2019-05-02T16:51:30.029Z,39.30
2019-05-02T16:53:48.314Z,39.39
2019-05-02T16:56:22.278Z,39.43
2019-05-02T16:58:54.856Z,39.05
2019-05-02T17:01:28.570Z,38.93
2019-05-02T17:04:05.197Z,38.99
2019-05-02T17:06:40.313Z,38.99
2019-05-02T17:09:24.152Z,38.92
2019-05-02T17:11:57.311Z,39.21
2019-05-02T17:14:31.700Z,39.25
2019-05-02T17:17:03.921Z,38.99
2019-05-02T17:19:36.800Z,39.11
2019-05-02T17:22:09.323Z,39.07
2019-05-02T17:24:41.921Z,39.01
2019-05-02T17:27:20.519Z,38.87
2019-05-02T17:29:54.264Z,39.12
2019-05-02T17:32:28.824Z,39.12
2019-05-02T17:35:02.719Z,38.84
2019-05-02T17:37:34.415Z,39.08
2019-05-02T17:40:06.928Z,39.07
2019-05-02T17:42:44.476Z,39.11
2019-05-02T17:45:17.390Z,39.14
2019-05-02T17:47:49.875Z,39.14
2019-05-02T17:50:35.704Z,39.21
2019-05-02T17:53:07.283Z,39.16
2019-05-02T17:55:40.784Z,39.24
2019-05-02T17:58:16.597Z,39.09
2019-05-02T18:01:00.726Z,39.09
2019-05-02T18:03:35.427Z,39.01
2019-05-02T18:06:07.609Z,39.01
2019-05-02T18:08:41.738Z,39.23
2019-05-02T18:11:14.549Z,38.90
2019-05-02T18:13:47.331Z,39.21
2019-05-02T18:16:21.663Z,39.21
2019-05-02T18:18:53.469Z,39.17
2019-05-02T18:21:28.699Z,39.29
2019-05-02T18:24:02.450Z,39.49
2019-05-02T18:26:33.879Z,39.64
2019-05-02T18:29:06.935Z,39.64
2019-05-02T18:31:47.131Z,39.51
2019-05-02T18:34:23.684Z,39.54
2019-05-02T18:36:49.537Z,39.44
2019-05-02T18:39:22.208Z,39.53
2019-05-02T18:41:55.107Z,39.53
2019-05-02T18:44:27.924Z,39.52
2019-05-02T18:47:02.290Z,39.45
2019-05-02T18:49:34.522Z,39.50
2019-05-02T18:52:07.229Z,39.17
2019-05-02T18:54:43.928Z,39.60
2019-05-02T18:57:17.198Z,39.54
2019-05-02T18:59:51.875Z,39.26
2019-05-02T19:02:26.320Z,39.06
2019-05-02T19:04:56.270Z,39.48
2019-05-02T19:07:35.645Z,39.58
2019-05-02T19:10:07.422Z,39.28
2019-05-02T19:12:41.920Z,39.28
2019-05-02T19:15:15.492Z,39.49
2019-05-02T19:17:50.191Z,39.41
2019-05-02T19:21:05.017Z,39.61
2019-05-02T19:23:38.103Z,39.67
2019-05-02T19:26:14.656Z,39.68
2019-05-02T19:29:14.034Z,39.66
2019-05-02T19:31:52.490Z,39.66
2019-05-02T19:34:26.783Z,39.87
2019-05-02T19:37:03.105Z,39.82
2019-05-02T19:39:32.862Z,39.70
2019-05-02T19:42:04.882Z,39.79
2019-05-02T19:44:37.995Z,39.74
2019-05-02T19:47:15.718Z,39.78
2019-05-02T19:49:47.390Z,39.85
2019-05-02T19:52:18.865Z,39.99
2019-05-02T19:54:51.883Z,39.99
2019-05-02T19:57:26.424Z,39.96
2019-05-02T20:00:02.832Z,39.67
2019-05-02T20:02:37.507Z,40.13
2019-05-02T20:05:16.367Z,40.13
2019-05-02T20:07:45.106Z,40.17
2019-05-02T20:10:19.688Z,40.06
2019-05-02T20:12:52.762Z,40.00
2019-05-02T20:15:27.041Z,40.00
2019-05-02T20:18:04.541Z,39.96
2019-05-02T20:21:23.269Z,40.17
2019-05-02T20:23:51.775Z,40.14
2019-05-02T20:26:24.272Z,40.10
2019-05-02T20:28:56.940Z,40.24
2019-05-02T20:31:29.565Z,40.20
2019-05-02T20:34:02.524Z,40.26
2019-05-02T20:36:33.709Z,40.22
2019-05-02T20:39:07.518Z,40.31
2019-05-02T20:41:41.948Z,40.31
2019-05-02T20:44:14.840Z,40.42
2019-05-02T20:46:47.342Z,40.40
2019-05-02T20:49:20.900Z,40.36
2019-05-02T20:51:54.080Z,40.43
2019-05-02T20:54:26.863Z,40.39
2019-05-02T20:56:59.339Z,40.43
2019-05-02T20:59:32.301Z,40.40
2019-05-02T21:02:04.901Z,40.36
2019-05-02T21:04:37.289Z,40.34
2019-05-02T21:07:22.105Z,40.53
2019-05-02T21:10:12.501Z,40.47
2019-05-02T21:12:43.714Z,40.36
2019-05-02T21:15:14.757Z,40.48
2019-05-02T21:17:46.855Z,40.46
2019-05-02T21:20:18.880Z,40.53
2019-05-02T21:22:52.780Z,40.51
2019-05-02T21:25:24.840Z,40.46
2019-05-02T21:27:58.332Z,40.42
2019-05-02T21:30:32.233Z,40.39
2019-05-02T21:33:04.832Z,40.38
2019-05-02T21:35:36.853Z,40.41
2019-05-02T21:38:09.345Z,40.51
2019-05-02T21:40:42.299Z,40.57
2019-05-02T21:43:15.041Z,40.57
2019-05-02T21:45:47.046Z,40.51
2019-05-02T21:48:19.379Z,40.63
2019-05-02T21:50:57.681Z,40.62
2019-05-02T21:53:54.201Z,40.61
2019-05-02T21:56:21.904Z,40.61
2019-05-02T21:59:07.322Z,40.51
2019-05-02T22:02:02.407Z,40.49
2019-05-02T22:04:35.323Z,40.64
2019-05-02T22:07:08.015Z,40.58
2019-05-02T22:09:41.646Z,40.70
2019-05-02T22:12:16.373Z,40.51
2019-05-02T22:14:48.907Z,40.58
2019-05-02T22:17:21.588Z,40.59
2019-05-02T22:19:53.884Z,40.55
2019-05-02T22:22:25.876Z,40.50
2019-05-02T22:24:58.293Z,40.46
2019-05-02T22:27:32.466Z,40.44
2019-05-02T22:30:04.895Z,40.54
2019-05-02T22:32:37.040Z,40.56
2019-05-02T22:35:09.865Z,40.60
2019-05-02T22:37:43.584Z,40.60
2019-05-02T22:40:16.785Z,40.33
2019-05-02T22:42:48.123Z,40.33
2019-05-02T22:45:21.767Z,40.34
2019-05-02T22:47:53.863Z,40.44
2019-05-02T22:50:25.901Z,40.46
2019-05-02T22:52:58.497Z,40.24
2019-05-02T22:55:31.997Z,40.51
2019-05-02T22:58:04.364Z,40.51
2019-05-02T23:00:36.865Z,40.47
2019-05-02T23:03:09.024Z,40.53
2019-05-02T23:05:42.151Z,40.42
2019-05-02T23:08:15.019Z,40.48
2019-05-02T23:10:46.862Z,40.45
2019-05-02T23:13:18.884Z,40.47
2019-05-02T23:15:52.159Z,40.48
2019-05-02T23:18:24.905Z,40.51
2019-05-02T23:20:56.873Z,40.52
2019-05-02T23:23:29.945Z,40.53
2019-05-02T23:26:22.439Z,40.49
2019-05-02T23:28:55.337Z,40.53
2019-05-02T23:31:28.337Z,40.53
2019-05-02T23:34:02.030Z,40.53
2019-05-02T23:36:35.326Z,40.46
2019-05-02T23:39:09.924Z,40.31
2019-05-02T23:41:42.913Z,40.34
2019-05-02T23:44:15.045Z,40.29
2019-05-02T23:46:47.542Z,40.52
2019-05-02T23:49:21.858Z,40.47
2019-05-02T23:51:52.792Z,40.51
2019-05-02T23:54:27.053Z,40.56
2019-05-02T23:56:59.081Z,40.65
2019-05-02T23:59:31.818Z,40.51
